createdAt,value
2022-09-02T00:01:27.663Z,94120.59
2022-09-02T00:03:59.180Z,94115.69
2022-09-02T00:06:27.852Z,94124.13
2022-09-02T00:08:56.840Z,94113.09
2022-09-02T00:11:28.801Z,94114.53
2022-09-02T00:13:58.334Z,94102.63
2022-09-02T00:16:27.027Z,94113.69
2022-09-02T00:18:56.500Z,94113.25
2022-09-02T00:21:25.597Z,94113.56
2022-09-02T00:23:54.696Z,94113.03
2022-09-02T00:26:22.902Z,94120.47
2022-09-02T00:28:56.312Z,94119.22
2022-09-02T00:31:25.718Z,94132.19
2022-09-02T00:33:53.783Z,94139.56
2022-09-02T00:36:22.381Z,94138.56
2022-09-02T00:38:50.699Z,94148.00
2022-09-02T00:41:21.298Z,94147.53
2022-09-02T00:43:53.193Z,94143.81
2022-09-02T00:46:23.671Z,94145.41
2022-09-02T00:48:57.645Z,94153.28
2022-09-02T00:51:29.284Z,94143.59
2022-09-02T00:53:57.711Z,94149.25
2022-09-02T00:56:29.137Z,94158.81
2022-09-02T00:59:00.336Z,94156.88
2022-09-02T01:01:28.487Z,94160.38
2022-09-02T01:03:56.799Z,94161.59
2022-09-02T01:06:28.657Z,94158.81
2022-09-02T01:09:02.740Z,94170.50
2022-09-02T01:11:38.609Z,94160.28
2022-09-02T01:14:10.131Z,94168.44
2022-09-02T01:16:43.037Z,94163.59
2022-09-02T01:19:19.663Z,94161.84
2022-09-02T01:21:50.743Z,94167.50
2022-09-02T01:24:21.531Z,94172.47
2022-09-02T01:26:50.154Z,94175.88
2022-09-02T01:29:18.222Z,94173.63
2022-09-02T01:31:46.747Z,94166.84
2022-09-02T01:34:15.056Z,94161.19
2022-09-02T01:36:44.465Z,94153.69
2022-09-02T01:39:14.594Z,94147.13
2022-09-02T01:41:42.774Z,94140.59
2022-09-02T01:44:12.365Z,94123.53
2022-09-02T01:46:40.523Z,94129.13
2022-09-02T01:49:08.636Z,94118.28
2022-09-02T01:51:36.832Z,94116.28
2022-09-02T01:54:05.874Z,94113.97
2022-09-02T01:56:35.357Z,94119.47
2022-09-02T01:59:04.679Z,94113.25
2022-09-02T02:01:32.757Z,94112.69
2022-09-02T02:04:01.592Z,94107.16
2022-09-02T02:06:29.968Z,94105.81
2022-09-02T02:08:57.974Z,94103.44
2022-09-02T02:11:26.759Z,94102.41
2022-09-02T02:13:56.130Z,94106.06
2022-09-02T02:16:25.353Z,94106.22
2022-09-02T02:18:53.426Z,94111.03
2022-09-02T02:21:30.231Z,94108.13
2022-09-02T02:24:00.466Z,94103.19
2022-09-02T02:26:28.667Z,94107.25
2022-09-02T02:28:58.159Z,94104.44
2022-09-02T02:31:26.135Z,94117.72
2022-09-02T02:33:54.178Z,94121.38
2022-09-02T02:36:23.130Z,94118.41
2022-09-02T02:38:51.075Z,94124.97
2022-09-02T02:41:19.048Z,94116.91
2022-09-02T02:43:47.886Z,94124.50
2022-09-02T02:46:17.995Z,94124.44
2022-09-02T02:48:46.059Z,94126.03
2022-09-02T02:51:14.830Z,94127.84
2022-09-02T02:53:42.838Z,94120.63
2022-09-02T02:56:11.527Z,94115.34
2022-09-02T02:58:39.472Z,94111.31
2022-09-02T03:01:08.009Z,94102.47
2022-09-02T03:03:37.456Z,94116.59
2022-09-02T03:06:05.834Z,94113.88
2022-09-02T03:08:36.837Z,94115.94
2022-09-02T03:11:07.108Z,94111.66
2022-09-02T03:13:36.275Z,94105.13
2022-09-02T03:16:06.225Z,94106.38
2022-09-02T03:18:34.537Z,94104.38
2022-09-02T03:21:08.626Z,94103.00
2022-09-02T03:23:37.363Z,94101.41
2022-09-02T03:26:11.179Z,94092.94
2022-09-02T03:28:39.505Z,94097.41
2022-09-02T03:31:08.292Z,94099.34
2022-09-02T03:33:36.367Z,94099.97
2022-09-02T03:36:06.157Z,94104.56
2022-09-02T03:38:35.730Z,94104.56
2022-09-02T03:41:03.780Z,94108.25
2022-09-02T03:43:31.802Z,94115.84
2022-09-02T03:45:59.908Z,94113.63
2022-09-02T03:48:29.468Z,94117.00
2022-09-02T03:50:57.543Z,94120.41
2022-09-02T03:53:27.052Z,94128.78
2022-09-02T03:55:55.275Z,94130.16
2022-09-02T03:58:23.944Z,94135.97
2022-09-02T04:00:53.269Z,94136.22
2022-09-02T04:03:21.811Z,94133.00
2022-09-02T04:05:50.920Z,94134.28
2022-09-02T04:08:19.337Z,94134.69
2022-09-02T04:10:48.818Z,94140.91
2022-09-02T04:13:20.339Z,94141.13
2022-09-02T04:15:49.554Z,94151.09
2022-09-02T04:18:18.843Z,94155.19
2022-09-02T04:20:46.970Z,94166.59
2022-09-02T04:23:16.095Z,94164.78
2022-09-02T04:25:44.986Z,94160.63
2022-09-02T04:28:14.387Z,94159.38
2022-09-02T04:30:43.659Z,94156.97
2022-09-02T04:33:12.160Z,94158.09
2022-09-02T04:35:41.759Z,94165.22
2022-09-02T04:38:09.913Z,94164.16
2022-09-02T04:40:41.510Z,94164.88
2022-09-02T04:43:09.690Z,94173.91
2022-09-02T04:45:41.056Z,94174.22
2022-09-02T04:48:09.171Z,94177.75
2022-09-02T04:50:38.751Z,94173.91
2022-09-02T04:53:07.444Z,94178.22
2022-09-02T04:55:36.518Z,94181.81
2022-09-02T04:58:04.886Z,94180.88
2022-09-02T05:00:33.472Z,94177.75
2022-09-02T05:03:04.756Z,94183.00
2022-09-02T05:05:32.825Z,94175.34
2022-09-02T05:08:01.049Z,94181.28
2022-09-02T05:10:29.096Z,94179.75
2022-09-02T05:12:57.367Z,94187.59
2022-09-02T05:15:25.437Z,94180.09
2022-09-02T05:17:54.373Z,94185.28
2022-09-02T05:20:24.178Z,94184.00
2022-09-02T05:22:52.229Z,94194.97
2022-09-02T05:25:20.952Z,94195.28
2022-09-02T05:27:49.084Z,94189.78
2022-09-02T05:30:17.374Z,94192.09
2022-09-02T05:32:46.605Z,94192.16
2022-09-02T05:35:14.639Z,94190.88
2022-09-02T05:37:44.195Z,94198.72
2022-09-02T05:40:14.819Z,94190.88
2022-09-02T05:42:43.630Z,94189.28
2022-09-02T05:45:14.056Z,94177.22
2022-09-02T05:47:44.887Z,94186.19
2022-09-02T05:50:15.051Z,94184.19
2022-09-02T05:52:47.046Z,94187.38
2022-09-02T05:55:15.078Z,94175.06
2022-09-02T05:57:43.545Z,94168.84
2022-09-02T06:00:17.752Z,94166.28
2022-09-02T06:02:46.929Z,94173.97
2022-09-02T06:05:15.140Z,94175.91
2022-09-02T06:07:44.579Z,94170.38
2022-09-02T06:10:13.105Z,94171.84
2022-09-02T06:12:42.791Z,94179.09
2022-09-02T06:15:12.493Z,94170.31
2022-09-02T06:17:41.541Z,94179.59
2022-09-02T06:20:10.844Z,94185.78
2022-09-02T06:22:40.269Z,94183.72
2022-09-02T06:25:46.573Z,94184.13
2022-09-02T06:28:14.927Z,94186.28
2022-09-02T06:30:45.466Z,94178.28
2022-09-02T06:33:15.457Z,94185.06
2022-09-02T06:35:45.459Z,94190.19
2022-09-02T06:38:15.114Z,94191.69
2022-09-02T06:40:50.384Z,94198.44
2022-09-02T06:43:18.795Z,94194.91
2022-09-02T06:45:47.117Z,94199.75
2022-09-02T06:48:15.722Z,94212.63
2022-09-02T06:50:47.043Z,94207.81
2022-09-02T06:53:18.030Z,94203.88
2022-09-02T06:55:48.444Z,94207.56
2022-09-02T06:58:17.050Z,94214.81
2022-09-02T07:00:45.937Z,94217.34
2022-09-02T07:03:31.820Z,94220.09
2022-09-02T07:06:02.606Z,94216.94
2022-09-02T07:08:31.465Z,94226.41
2022-09-02T07:11:01.431Z,94227.19
2022-09-02T07:13:29.658Z,94221.00
2022-09-02T07:15:57.848Z,94226.94
2022-09-02T07:18:26.002Z,94229.44
2022-09-02T07:20:55.225Z,94230.53
2022-09-02T07:23:27.903Z,94233.88
2022-09-02T07:25:57.137Z,94233.38
2022-09-02T07:28:27.576Z,94226.81
2022-09-02T07:30:59.652Z,94235.47
2022-09-02T07:33:28.388Z,94230.84
2022-09-02T07:35:57.037Z,94247.38
2022-09-02T07:38:25.922Z,94247.19
2022-09-02T07:40:57.157Z,94239.13
2022-09-02T07:43:27.996Z,94246.19
2022-09-02T07:45:57.416Z,94242.00
2022-09-02T07:48:26.620Z,94235.03
2022-09-02T07:50:55.149Z,94239.91
2022-09-02T07:53:24.250Z,94233.78
2022-09-02T07:55:52.520Z,94240.84
2022-09-02T07:58:22.879Z,94250.50
2022-09-02T08:00:53.927Z,94244.94
2022-09-02T08:03:23.182Z,94250.78
2022-09-02T08:05:51.891Z,94269.00
2022-09-02T08:08:21.713Z,94273.41
2022-09-02T08:10:51.470Z,94269.97
2022-09-02T08:13:20.022Z,94266.09
2022-09-02T08:15:50.895Z,94268.88
2022-09-02T08:18:22.583Z,94275.38
2022-09-02T08:20:51.342Z,94273.47
2022-09-02T08:23:33.647Z,94274.28
2022-09-02T08:26:04.705Z,94267.91
2022-09-02T08:28:33.252Z,94270.28
2022-09-02T08:31:05.729Z,94261.13
2022-09-02T08:33:35.459Z,94270.47
2022-09-02T08:36:05.680Z,94256.69
2022-09-02T08:38:33.721Z,94268.56
2022-09-02T08:41:02.480Z,94273.53
2022-09-02T08:43:38.505Z,94268.03
2022-09-02T08:46:09.407Z,94269.44
2022-09-02T08:48:45.907Z,94265.88
2022-09-02T08:51:21.716Z,94265.75
2022-09-02T08:53:53.583Z,94271.63
2022-09-02T08:56:21.844Z,94272.44
2022-09-02T08:58:56.490Z,94264.53
2022-09-02T09:01:34.830Z,94271.69
2022-09-02T09:04:14.948Z,94270.97
2022-09-02T09:07:00.590Z,94273.47
2022-09-02T09:09:37.950Z,94267.75
2022-09-02T09:12:15.288Z,94276.97
2022-09-02T09:14:50.090Z,94273.47
2022-09-02T09:17:27.907Z,94265.72
2022-09-02T09:20:03.218Z,94260.28
2022-09-02T09:22:37.498Z,94259.00
2022-09-02T09:25:11.528Z,94265.78
2022-09-02T09:27:40.441Z,94264.44
2022-09-02T09:30:15.011Z,94267.78
2022-09-02T09:32:47.965Z,94251.41
2022-09-02T09:35:18.799Z,94248.75
2022-09-02T09:37:48.551Z,94259.53
2022-09-02T09:40:26.939Z,94262.00
2022-09-02T09:42:58.994Z,94267.97
2022-09-02T09:45:35.140Z,94273.84
2022-09-02T09:48:27.758Z,94272.13
2022-09-02T09:51:16.050Z,94278.56
2022-09-02T09:53:45.003Z,94285.19
2022-09-02T09:56:29.808Z,94287.72
2022-09-02T09:58:58.523Z,94289.94
2022-09-02T10:01:30.563Z,94283.81
2022-09-02T10:04:01.172Z,94281.16
2022-09-02T10:06:42.239Z,94282.16
2022-09-02T10:09:30.084Z,94275.56
2022-09-02T10:12:00.682Z,94289.63
2022-09-02T10:14:34.812Z,94286.28
2022-09-02T10:17:16.738Z,94295.31
2022-09-02T10:19:53.827Z,94280.47
2022-09-02T10:22:58.671Z,94298.72
2022-09-02T10:25:33.952Z,94295.81
2022-09-02T10:28:10.868Z,94287.94
2022-09-02T10:30:50.687Z,94295.38
2022-09-02T10:33:31.775Z,94294.66
2022-09-02T10:36:08.873Z,94303.16
2022-09-02T10:38:44.180Z,94287.09
2022-09-02T10:41:27.630Z,94299.91
2022-09-02T10:44:07.562Z,94302.31
2022-09-02T10:46:45.529Z,94302.06
2022-09-02T10:49:24.141Z,94308.97
2022-09-02T10:52:04.649Z,94305.25
2022-09-02T10:54:44.805Z,94300.50
2022-09-02T10:57:17.382Z,94300.75
2022-09-02T10:59:51.445Z,94307.97
2022-09-02T11:02:23.141Z,94310.63
2022-09-02T11:04:56.612Z,94311.97
2022-09-02T11:07:30.023Z,94301.06
2022-09-02T11:10:06.855Z,94302.13
2022-09-02T11:12:39.317Z,94300.50
2022-09-02T11:15:13.742Z,94308.59
2022-09-02T11:17:48.607Z,94312.88
2022-09-02T11:20:31.838Z,94314.50
2022-09-02T11:23:08.124Z,94313.47
2022-09-02T11:25:44.147Z,94309.81
2022-09-02T11:28:28.381Z,94317.53
2022-09-02T11:31:02.926Z,94317.22
2022-09-02T11:33:35.808Z,94311.66
2022-09-02T11:36:05.474Z,94312.03
2022-09-02T11:38:38.206Z,94306.34
2022-09-02T11:41:35.832Z,94291.50
2022-09-02T11:44:22.308Z,94300.19
2022-09-02T11:47:13.327Z,94290.63
2022-09-02T11:50:11.206Z,94280.75
2022-09-02T11:52:59.031Z,94279.84
2022-09-02T11:55:34.324Z,94287.22
2022-09-02T11:58:04.992Z,94275.25
2022-09-02T12:00:36.699Z,94275.09
2022-09-02T12:03:38.835Z,94285.09
2022-09-02T12:06:11.210Z,94286.84
2022-09-02T12:09:04.855Z,94285.59
2022-09-02T12:11:59.344Z,94282.66
2022-09-02T12:15:06.674Z,94286.09
2022-09-02T12:18:17.349Z,94287.94
2022-09-02T12:21:16.350Z,94283.81
2022-09-02T12:24:09.975Z,94283.00
2022-09-02T12:27:26.555Z,94276.16
2022-09-02T12:29:56.020Z,94273.63
2022-09-02T12:33:05.095Z,94271.22
2022-09-02T12:35:52.090Z,94256.59
2022-09-02T12:38:38.797Z,94253.84
2022-09-02T12:41:21.794Z,94247.28
2022-09-02T12:44:19.444Z,94253.63
2022-09-02T12:46:58.789Z,94247.69
2022-09-02T12:49:37.460Z,94240.66
2022-09-02T12:52:09.423Z,94243.75
2022-09-02T12:54:47.989Z,94232.06
2022-09-02T12:57:17.452Z,94243.91
2022-09-02T12:59:47.308Z,94227.91
2022-09-02T13:02:30.310Z,94234.91
2022-09-02T13:05:16.158Z,94226.72
2022-09-02T13:08:14.900Z,94237.94
2022-09-02T13:11:20.736Z,94234.53
2022-09-02T13:14:20.983Z,94233.97
2022-09-02T13:17:09.022Z,94228.78
2022-09-02T13:20:00.323Z,94237.84
2022-09-02T13:23:01.889Z,94232.53
2022-09-02T13:25:57.083Z,94224.09
2022-09-02T13:29:00.668Z,94218.78
2022-09-02T13:31:29.392Z,94223.03
2022-09-02T13:34:04.259Z,94218.25
2022-09-02T13:36:37.406Z,94220.13
2022-09-02T13:39:14.244Z,94224.34
2022-09-02T13:41:42.531Z,94217.72
2022-09-02T13:44:14.195Z,94210.50
2022-09-02T13:46:50.521Z,94183.41
2022-09-02T13:49:24.537Z,94168.81
2022-09-02T13:51:55.078Z,94159.69
2022-09-02T13:54:34.105Z,94155.44
2022-09-02T13:57:06.579Z,94166.47
2022-09-02T13:59:38.629Z,94174.97
2022-09-02T14:02:26.368Z,94180.81
2022-09-02T14:04:59.095Z,94188.25
2022-09-02T14:07:34.305Z,94190.44
2022-09-02T14:10:06.869Z,94192.41
2022-09-02T14:12:37.809Z,94183.44
2022-09-02T14:15:09.430Z,94178.34
2022-09-02T14:17:37.684Z,94180.78
2022-09-02T14:20:19.132Z,94182.88
2022-09-02T14:22:54.795Z,94172.97
2022-09-02T14:25:27.245Z,94168.19
2022-09-02T14:27:58.091Z,94179.28
2022-09-02T14:30:38.003Z,94171.91
2022-09-02T14:33:28.266Z,94184.59
2022-09-02T14:35:58.203Z,94177.88
2022-09-02T14:38:28.222Z,94161.84
2022-09-02T14:41:04.711Z,94156.59
2022-09-02T14:43:43.417Z,94149.81
2022-09-02T14:46:22.971Z,94169.19
2022-09-02T14:48:56.099Z,94163.41
2022-09-02T14:51:24.165Z,94175.38
2022-09-02T14:53:53.136Z,94170.28
2022-09-02T14:56:45.910Z,94173.41
2022-09-02T14:59:14.227Z,94174.78
2022-09-02T15:01:47.259Z,94164.78
2022-09-02T15:04:16.161Z,94175.09
2022-09-02T15:06:45.306Z,94187.44
2022-09-02T15:09:16.597Z,94179.28
2022-09-02T15:11:47.185Z,94190.41
2022-09-02T15:14:15.860Z,94190.81
2022-09-02T15:16:45.288Z,94183.22
2022-09-02T15:19:13.279Z,94188.06
2022-09-02T15:21:41.629Z,94194.34
2022-09-02T15:24:09.638Z,94188.75
2022-09-02T15:26:37.857Z,94195.13
2022-09-02T15:29:06.044Z,94183.47
2022-09-02T15:31:35.260Z,94198.72
2022-09-02T15:34:04.899Z,94203.75
2022-09-02T15:36:32.971Z,94186.47
2022-09-02T15:39:01.256Z,94179.78
2022-09-02T15:41:31.563Z,94184.88
2022-09-02T15:44:01.026Z,94174.75
2022-09-02T15:46:31.762Z,94192.53
2022-09-02T15:49:03.112Z,94194.06
2022-09-02T15:51:33.249Z,94197.25
2022-09-02T15:54:03.487Z,94197.75
2022-09-02T15:56:34.229Z,94201.03
2022-09-02T15:59:05.013Z,94206.25
2022-09-02T16:01:35.758Z,94208.31
2022-09-02T16:04:04.289Z,94209.59
2022-09-02T16:06:36.087Z,94202.75
2022-09-02T16:09:05.064Z,94202.00
2022-09-02T16:11:33.434Z,94197.63
2022-09-02T16:14:01.442Z,94194.28
2022-09-02T16:16:29.483Z,94195.66
2022-09-02T16:18:57.539Z,94187.41
2022-09-02T16:21:25.873Z,94193.25
2022-09-02T16:23:55.417Z,94205.75
2022-09-02T16:26:26.037Z,94206.56
2022-09-02T16:28:56.665Z,94212.22
2022-09-02T16:31:26.433Z,94209.75
2022-09-02T16:33:55.441Z,94218.00
2022-09-02T16:36:24.401Z,94226.28
2022-09-02T16:38:56.465Z,94231.97
2022-09-02T16:41:28.217Z,94225.84
2022-09-02T16:43:58.138Z,94239.84
2022-09-02T16:46:27.991Z,94238.41
2022-09-02T16:48:57.946Z,94237.03
2022-09-02T16:51:27.758Z,94234.38
2022-09-02T16:53:58.867Z,94235.09
2022-09-02T16:56:27.186Z,94234.19
2022-09-02T16:58:56.005Z,94227.63
2022-09-02T17:01:27.617Z,94233.47
2022-09-02T17:04:00.844Z,94237.38
2022-09-02T17:06:29.470Z,94234.97
2022-09-02T17:08:59.404Z,94226.34
2022-09-02T17:11:29.609Z,94240.97
2022-09-02T17:13:59.732Z,94245.97
2022-09-02T17:16:30.695Z,94239.03
2022-09-02T17:18:59.581Z,94234.19
2022-09-02T17:21:31.107Z,94229.75
2022-09-02T17:24:01.021Z,94231.94
2022-09-02T17:26:30.974Z,94237.69
2022-09-02T17:28:59.280Z,94235.66
2022-09-02T17:31:30.053Z,94237.47
2022-09-02T17:33:59.627Z,94238.72
2022-09-02T17:36:29.960Z,94235.16
2022-09-02T17:38:58.946Z,94239.16
2022-09-02T17:41:45.963Z,94243.09
2022-09-02T17:44:16.272Z,94241.56
2022-09-02T17:46:45.381Z,94255.03
2022-09-02T17:49:17.249Z,94250.03
2022-09-02T17:51:46.606Z,94249.84
2022-09-02T17:54:15.901Z,94264.84
2022-09-02T17:57:10.622Z,94267.06
2022-09-02T17:59:53.290Z,94265.06
2022-09-02T18:02:48.831Z,94274.41
2022-09-02T18:05:22.772Z,94276.81
2022-09-02T18:08:02.584Z,94282.72
2022-09-02T18:10:34.414Z,94285.44
2022-09-02T18:13:08.042Z,94283.81
2022-09-02T18:15:43.312Z,94290.69
2022-09-02T18:18:12.022Z,94300.59
2022-09-02T18:20:43.093Z,94296.81
2022-09-02T18:23:42.733Z,94299.72
2022-09-02T18:26:24.338Z,94294.47
2022-09-02T18:29:10.319Z,94310.22
2022-09-02T18:31:49.263Z,94308.47
2022-09-02T18:34:38.944Z,94318.63
2022-09-02T18:37:16.440Z,94320.44
2022-09-02T18:40:02.693Z,94328.84
2022-09-02T18:42:38.813Z,94329.22
2022-09-02T18:45:21.513Z,94330.81
2022-09-02T18:47:55.072Z,94324.59
2022-09-02T18:50:47.655Z,94336.22
2022-09-02T18:53:20.900Z,94336.28
2022-09-02T18:55:49.322Z,94340.53
2022-09-02T18:58:31.710Z,94338.69
2022-09-02T19:01:06.682Z,94333.13
2022-09-02T19:03:37.322Z,94330.34
2022-09-02T19:06:08.579Z,94332.91
2022-09-02T19:08:38.281Z,94337.94
2022-09-02T19:11:09.439Z,94341.59
2022-09-02T19:13:46.024Z,94342.53
2022-09-02T19:16:17.621Z,94340.16
2022-09-02T19:18:45.786Z,94326.25
2022-09-02T19:21:18.959Z,94334.34
2022-09-02T19:23:49.347Z,94333.47
2022-09-02T19:26:18.925Z,94331.97
2022-09-02T19:28:48.503Z,94331.75
2022-09-02T19:31:22.889Z,94327.38
2022-09-02T19:33:52.883Z,94326.88
2022-09-02T19:36:22.663Z,94333.72
2022-09-02T19:38:50.802Z,94321.47
2022-09-02T19:41:18.878Z,94326.47
2022-09-02T19:43:47.637Z,94314.91
2022-09-02T19:46:43.957Z,94318.13
2022-09-02T19:49:05.146Z,94318.53
2022-09-02T19:51:33.222Z,94314.75
2022-09-02T19:54:01.213Z,94315.34
2022-09-02T19:56:29.243Z,94320.38
2022-09-02T19:58:57.310Z,94322.81
2022-09-02T20:01:25.396Z,94326.06
2022-09-02T20:03:53.467Z,94309.06
2022-09-02T20:06:22.867Z,94316.03
2022-09-02T20:08:51.234Z,94304.66
2022-09-02T20:11:19.246Z,94311.09
2022-09-02T20:13:49.214Z,94323.44
2022-09-02T20:16:19.907Z,94317.88
2022-09-02T20:18:49.405Z,94306.63
2022-09-02T20:21:21.517Z,94311.47
2022-09-02T20:23:51.197Z,94326.34
2022-09-02T20:26:27.567Z,94321.69
2022-09-02T20:29:12.197Z,94324.69
2022-09-02T20:32:02.875Z,94319.50
2022-09-02T20:34:49.096Z,94319.72
2022-09-02T20:37:29.349Z,94328.59
2022-09-02T20:40:14.725Z,94330.56
2022-09-02T20:43:24.610Z,94338.91
2022-09-02T20:45:58.485Z,94338.47
2022-09-02T20:48:43.507Z,94340.50
2022-09-02T20:51:16.271Z,94343.91
2022-09-02T20:54:05.376Z,94341.09
2022-09-02T20:56:47.550Z,94340.94
2022-09-02T20:59:23.949Z,94338.09
2022-09-02T21:01:58.413Z,94337.47
2022-09-02T21:04:33.883Z,94347.94
2022-09-02T21:07:06.025Z,94356.41
2022-09-02T21:09:42.085Z,94351.78
2022-09-02T21:12:22.385Z,94352.56
2022-09-02T21:15:00.165Z,94348.38
2022-09-02T21:17:36.679Z,94358.25
2022-09-02T21:20:13.949Z,94356.81
2022-09-02T21:22:46.226Z,94354.22
2022-09-02T21:25:20.517Z,94341.72
2022-09-02T21:27:54.594Z,94346.94
2022-09-02T21:30:24.213Z,94355.44
2022-09-02T21:32:56.023Z,94349.59
2022-09-02T21:35:26.971Z,94356.63
2022-09-02T21:38:00.162Z,94351.81
2022-09-02T21:40:33.594Z,94372.78
2022-09-02T21:43:21.526Z,94361.50
2022-09-02T21:45:59.023Z,94363.34
2022-09-02T21:48:36.208Z,94365.31
2022-09-02T21:51:09.686Z,94373.81
2022-09-02T21:53:53.657Z,94362.72
2022-09-02T21:56:39.666Z,94366.00
2022-09-02T21:59:22.722Z,94358.94
2022-09-02T22:01:56.296Z,94360.91
2022-09-02T22:04:39.499Z,94356.47
2022-09-02T22:07:19.254Z,94364.56
2022-09-02T22:09:51.372Z,94362.34
2022-09-02T22:12:23.027Z,94360.16
2022-09-02T22:15:01.801Z,94366.00
2022-09-02T22:17:44.679Z,94353.09
2022-09-02T22:20:17.727Z,94353.53
2022-09-02T22:22:53.305Z,94360.38
2022-09-02T22:25:22.621Z,94355.75
2022-09-02T22:27:56.990Z,94345.06
2022-09-02T22:30:28.836Z,94351.91
2022-09-02T22:33:07.284Z,94350.50
2022-09-02T22:35:41.460Z,94342.66
2022-09-02T22:38:16.683Z,94347.69
2022-09-02T22:40:51.854Z,94342.25
2022-09-02T22:43:25.242Z,94341.44
2022-09-02T22:46:17.994Z,94347.84
2022-09-02T22:49:09.784Z,94355.53
2022-09-02T22:52:02.908Z,94344.09
2022-09-02T22:54:32.103Z,94347.94
2022-09-02T22:57:07.496Z,94346.72
2022-09-02T22:59:48.841Z,94345.50
2022-09-02T23:02:24.275Z,94355.19
2022-09-02T23:05:08.123Z,94346.31
2022-09-02T23:07:36.195Z,94350.56
2022-09-02T23:10:15.379Z,94358.19
2022-09-02T23:12:52.295Z,94354.63
2022-09-02T23:15:27.278Z,94353.78
2022-09-02T23:18:05.904Z,94355.41
2022-09-02T23:20:45.329Z,94348.16
2022-09-02T23:23:29.476Z,94352.97
2022-09-02T23:26:18.711Z,94355.19
2022-09-02T23:29:07.473Z,94356.97
2022-09-02T23:32:00.600Z,94353.53
2022-09-02T23:34:46.259Z,94349.94
2022-09-02T23:37:26.998Z,94343.88
2022-09-02T23:40:03.957Z,94345.84
2022-09-02T23:42:32.138Z,94350.13
2022-09-02T23:45:18.813Z,94349.31
2022-09-02T23:47:58.187Z,94356.16
2022-09-02T23:50:38.287Z,94355.16
2022-09-02T23:53:11.314Z,94353.91
2022-09-02T23:55:49.219Z,94350.47
2022-09-02T23:58:33.874Z,94359.50
